createdAt,value
2019-05-13T00:03:47.604Z,80.10
2019-05-13T00:08:54.168Z,80.30
2019-05-13T00:13:57.457Z,81.20
2019-05-13T00:19:03.971Z,82.00
2019-05-13T00:24:07.330Z,81.70
2019-05-13T00:29:11.391Z,81.10
2019-05-13T00:34:15.769Z,80.90
2019-05-13T00:39:19.770Z,81.90
2019-05-13T00:44:24.484Z,83.80
2019-05-13T00:49:28.644Z,84.40
2019-05-13T00:54:34.229Z,83.00
2019-05-13T00:59:38.431Z,86.40
2019-05-13T01:04:44.164Z,83.60
2019-05-13T01:09:48.504Z,83.70
2019-05-13T01:14:53.409Z,83.90
2019-05-13T01:19:57.896Z,84.70
2019-05-13T01:25:03.926Z,83.60
2019-05-13T01:30:09.374Z,83.40
2019-05-13T01:35:14.905Z,83.90
2019-05-13T01:40:19.119Z,83.50
2019-05-13T01:45:24.093Z,84.00
2019-05-13T01:50:29.353Z,83.60
2019-05-13T01:55:34.124Z,84.10
2019-05-13T02:00:38.399Z,84.90
2019-05-13T02:05:44.334Z,86.40
2019-05-13T02:10:54.865Z,85.20
2019-05-13T02:15:59.114Z,84.60
2019-05-13T02:21:05.275Z,84.20
2019-05-13T02:26:09.061Z,84.20
2019-05-13T02:31:18.871Z,85.00
2019-05-13T02:36:22.562Z,86.10
2019-05-13T02:41:25.146Z,84.90
2019-05-13T02:46:28.313Z,85.10
2019-05-13T02:51:32.962Z,85.30
2019-05-13T02:56:37.056Z,85.70
2019-05-13T03:01:43.188Z,85.70
2019-05-13T03:06:47.561Z,85.00
2019-05-13T03:11:53.574Z,84.80
2019-05-13T03:17:12.836Z,85.00
2019-05-13T03:22:15.566Z,84.90
2019-05-13T03:27:23.984Z,85.50
2019-05-13T03:32:27.481Z,86.70
2019-05-13T03:37:34.854Z,85.20
2019-05-13T03:42:42.506Z,86.50
2019-05-13T03:47:48.900Z,85.80
2019-05-13T03:52:53.247Z,85.30
2019-05-13T03:57:57.889Z,85.20
2019-05-13T04:03:03.450Z,85.60
2019-05-13T04:08:07.758Z,85.30
2019-05-13T04:13:12.719Z,85.90
2019-05-13T04:18:17.538Z,85.30
2019-05-13T04:23:23.267Z,87.30
2019-05-13T04:28:27.731Z,87.00
2019-05-13T04:33:33.624Z,86.20
2019-05-13T04:38:38.187Z,85.30
2019-05-13T04:43:43.549Z,84.50
2019-05-13T04:48:47.717Z,82.90
2019-05-13T04:53:56.121Z,80.60
2019-05-13T04:58:57.921Z,78.00
2019-05-13T05:04:22.557Z,76.80
2019-05-13T05:10:17.447Z,75.10
2019-05-13T05:15:35.149Z,73.40
2019-05-13T05:21:03.443Z,70.70
2019-05-13T05:26:25.239Z,69.50
2019-05-13T05:31:51.818Z,67.90
2019-05-13T05:37:18.869Z,66.50
2019-05-13T05:42:25.094Z,63.50
2019-05-13T05:47:31.772Z,64.00
2019-05-13T05:52:37.423Z,63.90
2019-05-13T05:57:43.056Z,63.50
2019-05-13T06:02:49.545Z,60.10
2019-05-13T06:07:53.692Z,57.90
2019-05-13T06:13:01.693Z,56.70
2019-05-13T06:18:05.665Z,56.40
2019-05-13T06:23:11.492Z,54.90
2019-05-13T06:28:15.766Z,54.10
2019-05-13T06:33:21.196Z,53.10
2019-05-13T06:38:25.378Z,54.00
2019-05-13T06:43:31.474Z,51.60
2019-05-13T06:48:36.131Z,52.00
2019-05-13T06:53:41.471Z,50.70
2019-05-13T06:58:45.707Z,52.90
2019-05-13T07:03:51.823Z,48.60
2019-05-13T07:08:55.571Z,47.60
2019-05-13T07:14:02.086Z,47.90
2019-05-13T07:19:05.456Z,47.80
2019-05-13T07:24:12.386Z,47.20
2019-05-13T07:29:16.487Z,47.10
2019-05-13T07:34:24.621Z,47.00
2019-05-13T07:39:28.634Z,47.10
2019-05-13T07:44:33.365Z,45.80
2019-05-13T07:49:37.573Z,46.80
2019-05-13T07:54:42.128Z,47.20
2019-05-13T07:59:45.998Z,46.80
2019-05-13T08:04:53.208Z,46.20
2019-05-13T08:10:00.215Z,46.90
2019-05-13T08:15:06.921Z,47.90
2019-05-13T08:20:12.519Z,44.60
2019-05-13T08:25:17.131Z,42.90
2019-05-13T08:30:22.716Z,37.80
2019-05-13T08:35:27.471Z,42.30
2019-05-13T08:40:31.696Z,39.00
2019-05-13T08:45:36.388Z,37.40
2019-05-13T08:50:41.774Z,42.30
2019-05-13T08:55:46.547Z,40.70
2019-05-13T09:00:58.635Z,41.60
2019-05-13T09:06:02.746Z,42.50
2019-05-13T09:11:06.710Z,41.30
2019-05-13T09:16:13.321Z,38.70
2019-05-13T09:21:17.436Z,40.50
2019-05-13T09:26:22.560Z,37.00
2019-05-13T09:31:26.609Z,34.30
2019-05-13T09:36:32.413Z,34.90
2019-05-13T09:41:40.891Z,36.70
2019-05-13T09:46:42.672Z,36.10
2019-05-13T09:51:47.043Z,33.50
2019-05-13T09:56:52.506Z,31.80
2019-05-13T10:01:56.591Z,30.40
2019-05-13T10:12:07.187Z,31.90
2019-05-13T10:17:13.176Z,30.00
2019-05-13T10:22:17.388Z,30.60
2019-05-13T10:27:22.513Z,33.00
2019-05-13T10:32:32.768Z,34.10
2019-05-13T10:37:41.484Z,33.40
2019-05-13T10:42:48.718Z,31.40
2019-05-13T10:47:56.530Z,33.80
2019-05-13T10:53:02.725Z,31.10
2019-05-13T10:58:07.213Z,31.30
2019-05-13T11:03:11.780Z,27.20
2019-05-13T11:08:16.486Z,31.50
2019-05-13T11:13:23.144Z,28.30
2019-05-13T11:18:27.261Z,31.50
2019-05-13T11:23:32.290Z,29.50
2019-05-13T11:28:37.232Z,31.70
2019-05-13T11:33:43.930Z,30.40
2019-05-13T11:38:47.983Z,31.70
2019-05-13T11:44:11.015Z,28.80
2019-05-13T11:48:58.746Z,32.40
2019-05-13T11:54:03.380Z,29.60
2019-05-13T11:59:06.850Z,32.80
2019-05-13T12:04:11.674Z,30.50
2019-05-13T12:09:15.851Z,29.70
2019-05-13T12:14:43.020Z,31.10
2019-05-13T12:19:27.319Z,33.30
2019-05-13T12:24:31.931Z,31.40
2019-05-13T12:29:35.231Z,32.40
2019-05-13T12:34:45.003Z,34.80
2019-05-13T12:39:46.331Z,33.80
2019-05-13T12:45:03.838Z,33.10
2019-05-13T12:49:56.756Z,31.90
2019-05-13T12:55:03.212Z,37.60
2019-05-13T13:00:08.183Z,35.60
2019-05-13T13:05:19.205Z,34.20
2019-05-13T13:10:22.867Z,35.90
2019-05-13T13:15:38.299Z,37.00
2019-05-13T13:20:41.617Z,38.50
2019-05-13T13:25:52.445Z,37.10
2019-05-13T13:30:53.007Z,34.60
2019-05-13T13:36:00.192Z,34.40
2019-05-13T13:41:08.172Z,36.00
2019-05-13T13:46:31.656Z,32.00
2019-05-13T13:51:18.887Z,35.50
2019-05-13T13:56:25.276Z,33.10
2019-05-13T14:01:32.522Z,32.00
2019-05-13T14:06:59.590Z,31.20
2019-05-13T14:11:41.990Z,30.30
2019-05-13T14:16:46.842Z,31.70
2019-05-13T14:21:52.483Z,31.10
2019-05-13T14:26:56.815Z,32.20
2019-05-13T14:32:01.866Z,32.60
2019-05-13T14:37:05.839Z,33.60
2019-05-13T14:42:11.690Z,32.90
2019-05-13T14:47:15.974Z,32.20
2019-05-13T14:52:22.238Z,32.30
2019-05-13T14:57:26.177Z,34.60
2019-05-13T15:02:31.658Z,31.30
2019-05-13T15:07:36.420Z,31.90
2019-05-13T15:12:41.546Z,32.60
2019-05-13T15:17:45.848Z,35.10
2019-05-13T15:22:51.889Z,34.10
2019-05-13T15:27:56.463Z,33.00
2019-05-13T15:33:01.768Z,33.30
2019-05-13T15:38:06.057Z,33.80
2019-05-13T15:43:11.681Z,33.40
2019-05-13T15:48:16.163Z,34.10
2019-05-13T15:53:21.487Z,33.40
2019-05-13T15:58:38.359Z,35.70
2019-05-13T16:03:32.398Z,34.10
2019-05-13T16:08:35.731Z,34.80
2019-05-13T16:13:40.056Z,36.40
2019-05-13T16:18:44.104Z,37.30
2019-05-13T16:23:48.129Z,37.40
2019-05-13T16:28:52.769Z,39.00
2019-05-13T16:33:57.236Z,41.40
2019-05-13T16:39:05.817Z,42.80
2019-05-13T16:44:11.904Z,42.00
2019-05-13T16:49:17.885Z,41.30
2019-05-13T16:54:22.227Z,41.10
2019-05-13T16:59:31.468Z,40.00
2019-05-13T17:04:35.160Z,41.70
2019-05-13T17:09:41.415Z,40.60
2019-05-13T17:14:44.895Z,40.80
2019-05-13T17:19:51.601Z,41.30
2019-05-13T17:24:55.031Z,41.70
2019-05-13T17:30:01.906Z,40.80
2019-05-13T17:35:05.503Z,41.60
2019-05-13T17:40:11.867Z,41.50
2019-05-13T17:45:15.747Z,41.20
2019-05-13T17:50:22.080Z,41.50
2019-05-13T17:55:26.125Z,40.30
2019-05-13T18:00:32.321Z,41.70
2019-05-13T18:05:36.941Z,41.80
2019-05-13T18:10:41.966Z,41.80
2019-05-13T18:15:46.242Z,43.40
2019-05-13T18:20:52.088Z,43.00
2019-05-13T18:25:56.313Z,44.40
2019-05-13T18:31:01.803Z,46.30
2019-05-13T18:36:06.092Z,47.10
2019-05-13T18:41:12.477Z,48.40
2019-05-13T18:46:17.136Z,49.20
2019-05-13T18:51:21.170Z,50.00
2019-05-13T18:56:25.611Z,50.50
2019-05-13T19:01:29.578Z,50.90
2019-05-13T19:06:34.175Z,51.10
2019-05-13T19:11:38.259Z,51.30
2019-05-13T19:16:42.448Z,51.30
2019-05-13T19:21:46.519Z,51.90
2019-05-13T19:26:52.124Z,50.80
2019-05-13T19:31:56.281Z,50.80
2019-05-13T19:37:02.401Z,51.00
2019-05-13T19:42:06.830Z,51.10
2019-05-13T19:47:12.464Z,51.70
2019-05-13T19:52:17.147Z,52.50
2019-05-13T19:57:21.597Z,53.60
2019-05-13T20:02:25.633Z,53.60
2019-05-13T20:07:31.849Z,54.00
2019-05-13T20:12:35.536Z,54.60
2019-05-13T20:17:41.639Z,54.90
2019-05-13T20:22:46.386Z,54.80
2019-05-13T20:27:51.563Z,54.70
2019-05-13T20:32:56.116Z,54.90
2019-05-13T20:38:02.232Z,55.10
2019-05-13T20:43:06.550Z,56.10
2019-05-13T20:48:11.920Z,56.60
2019-05-13T20:53:16.205Z,57.30
2019-05-13T20:58:21.454Z,57.70
2019-05-13T21:03:25.536Z,58.00
2019-05-13T21:08:31.961Z,57.80
2019-05-13T21:13:35.929Z,58.40
2019-05-13T21:18:42.062Z,59.60
2019-05-13T21:23:45.950Z,60.40
2019-05-13T21:28:52.195Z,62.70
2019-05-13T21:33:56.526Z,62.90
2019-05-13T21:39:01.629Z,63.90
2019-05-13T21:44:06.022Z,64.80
2019-05-13T21:49:11.836Z,62.70
2019-05-13T21:54:15.686Z,64.10
2019-05-13T21:59:23.067Z,65.00
2019-05-13T22:04:26.005Z,66.50
2019-05-13T22:09:31.714Z,68.20
2019-05-13T22:14:36.091Z,67.90
2019-05-13T22:19:41.976Z,68.60
2019-05-13T22:24:46.703Z,66.90
2019-05-13T22:29:51.664Z,67.90
2019-05-13T22:34:55.950Z,70.30
2019-05-13T22:40:01.644Z,70.50
2019-05-13T22:45:06.473Z,70.50
2019-05-13T22:50:11.507Z,70.40
2019-05-13T22:55:15.826Z,73.00
2019-05-13T23:00:22.180Z,74.50
2019-05-13T23:05:26.124Z,74.90
2019-05-13T23:10:31.801Z,75.40
2019-05-13T23:15:36.566Z,73.60
2019-05-13T23:20:41.048Z,76.40
2019-05-13T23:25:45.319Z,71.70
2019-05-13T23:30:51.170Z,73.60
2019-05-13T23:35:55.513Z,71.90
2019-05-13T23:41:01.878Z,72.20
2019-05-13T23:46:05.771Z,73.00
2019-05-13T23:51:09.781Z,71.70
2019-05-13T23:56:13.848Z,70.80
